Time;durP1;ratioP1;P1;durP2;ratioP2;P2;SDS_P1;SDS_P2;PMS_P1;PMS_P2;Temp;Humidity;BMP_temperature;BMP_pressure;BME280_temperature;BME280_humidity;BME280_pressure;Samples;Min_cycle;Max_cycle;Signal;HPM_P1;HPM_P2
2022/09/29 02:48:24;;;;;;;1.92;0.30;;;8.90;99.90;;;;;;5045675;23;93268;-83
2022/09/29 02:51:00;;;;;;;1.33;0.30;;;8.90;99.90;;;;;;4899108;28;92685;-81
2022/09/29 02:53:50;;;;;;;1.10;0.30;;;9.00;99.90;;;;;;4902143;28;91261;-81
2022/09/29 02:56:41;;;;;;;1.52;0.30;;;9.00;99.90;;;;;;4917421;28;91973;-81
2022/09/29 02:59:13;;;;;;;0.85;0.20;;;9.10;99.90;;;;;;4915724;28;92003;-82
2022/09/29 03:01:50;;;;;;;1.60;0.60;;;9.10;99.90;;;;;;4909153;28;91326;-80
2022/09/29 03:04:17;;;;;;;2.38;0.50;;;9.00;99.90;;;;;;4901546;28;91780;-84
2022/09/29 03:06:43;;;;;;;1.40;0.45;;;8.90;99.90;;;;;;4898357;28;91655;-85
2022/09/29 03:09:09;;;;;;;1.58;0.60;;;8.80;99.90;;;;;;4898549;28;91416;-83
2022/09/29 03:11:34;;;;;;;1.70;0.60;;;8.80;99.90;;;;;;4898474;28;91256;-81
2022/09/29 03:14:00;;;;;;;2.67;0.40;;;8.80;99.90;;;;;;4898589;28;92093;-80
2022/09/29 03:16:26;;;;;;;1.33;0.55;;;8.80;99.90;;;;;;4897732;28;92738;-80
2022/09/29 03:18:51;;;;;;;2.63;0.60;;;8.90;99.90;;;;;;4898533;28;92305;-80
2022/09/29 03:21:17;;;;;;;1.52;0.52;;;8.90;99.90;;;;;;4905304;28;91722;-80
2022/09/29 03:23:43;;;;;;;1.90;0.65;;;8.80;99.90;;;;;;4920202;28;91687;-81
2022/09/29 03:26:08;;;;;;;3.97;0.70;;;8.80;99.90;;;;;;4921031;28;92829;-78
2022/09/29 03:28:34;;;;;;;1.80;0.77;;;8.90;99.90;;;;;;4921233;28;91939;-79
2022/09/29 03:31:08;;;;;;;2.17;0.80;;;8.90;99.90;;;;;;4920586;28;91574;-78
2022/09/29 03:33:34;;;;;;;1.50;0.68;;;8.90;99.90;;;;;;4921867;28;90631;-78
2022/09/29 03:36:00;;;;;;;2.05;0.70;;;9.00;99.90;;;;;;4921074;28;92006;-81
2022/09/29 03:38:26;;;;;;;3.83;0.60;;;9.00;99.90;;;;;;4920757;28;91577;-79
2022/09/29 03:40:51;;;;;;;3.38;0.90;;;9.00;99.90;;;;;;4921058;28;92514;-80
2022/09/29 03:43:17;;;;;;;4.15;0.93;;;9.00;99.90;;;;;;4916652;28;91745;-80
2022/09/29 03:45:54;;;;;;;1.98;0.70;;;9.00;99.90;;;;;;4913966;28;92727;-82
2022/09/29 03:48:21;;;;;;;5.22;0.60;;;9.10;99.90;;;;;;4920092;28;91842;-81
2022/09/29 03:50:50;;;;;;;1.50;0.60;;;9.10;99.90;;;;;;4921302;28;91791;-82
2022/09/29 03:53:16;;;;;;;2.15;0.80;;;9.10;99.90;;;;;;4921148;28;91327;-82
2022/09/29 03:55:49;;;;;;;1.50;0.40;;;9.00;99.90;;;;;;4920824;28;91804;-81
2022/09/29 03:58:16;;;;;;;2.90;0.73;;;9.10;99.90;;;;;;4917575;28;91933;-82
2022/09/29 04:00:42;;;;;;;2.17;0.50;;;9.10;99.90;;;;;;4915243;28;91304;-81
2022/09/29 04:03:08;;;;;;;3.55;0.90;;;9.10;99.90;;;;;;4914685;28;91667;-80
2022/09/29 04:05:37;;;;;;;2.17;1.00;;;9.10;99.90;;;;;;4920202;28;93032;-80
2022/09/29 04:08:04;;;;;;;1.90;0.75;;;9.10;99.90;;;;;;4917793;28;92806;-80
2022/09/29 04:10:29;;;;;;;2.80;0.90;;;9.10;99.90;;;;;;4920053;28;91365;-79
2022/09/29 04:12:55;;;;;;;1.70;0.75;;;9.00;99.90;;;;;;4923053;28;91511;-82
2022/09/29 04:15:21;;;;;;;1.80;0.73;;;9.00;99.90;;;;;;4926877;28;93221;-80
2022/09/29 04:17:46;;;;;;;3.75;1.17;;;9.00;99.90;;;;;;4927102;28;92138;-79
2022/09/29 04:20:12;;;;;;;3.00;0.95;;;9.00;99.90;;;;;;4927401;28;91765;-78
2022/09/29 04:22:38;;;;;;;3.05;0.95;;;9.00;99.90;;;;;;4926454;28;90830;-78
2022/09/29 04:25:03;;;;;;;3.13;0.90;;;9.00;99.90;;;;;;4926658;28;91796;-80
2022/09/29 04:27:29;;;;;;;3.55;1.17;;;9.00;99.90;;;;;;4922002;28;91538;-79
2022/09/29 04:29:55;;;;;;;2.95;1.00;;;9.00;99.90;;;;;;4923782;28;92188;-79
2022/09/29 04:32:20;;;;;;;3.72;1.02;;;9.00;99.90;;;;;;4925443;28;91758;-84
2022/09/29 04:34:47;;;;;;;2.75;1.40;;;9.00;99.90;;;;;;4925748;28;93447;-83
2022/09/29 04:37:13;;;;;;;2.55;1.17;;;8.90;99.90;;;;;;4926009;28;92147;-80
2022/09/29 04:39:39;;;;;;;3.13;1.20;;;8.90;99.90;;;;;;4925314;28;91202;-83
2022/09/29 04:42:05;;;;;;;3.03;1.20;;;8.90;99.90;;;;;;4926764;28;91655;-81
2022/09/29 04:44:30;;;;;;;3.13;1.30;;;8.90;99.90;;;;;;4926831;28;91708;-81
2022/09/29 04:46:56;;;;;;;2.78;1.30;;;8.90;99.90;;;;;;4925668;28;91080;-80
2022/09/29 04:49:22;;;;;;;3.28;1.35;;;9.00;99.90;;;;;;4926596;28;91481;-83
2022/09/29 04:51:48;;;;;;;5.43;1.40;;;9.00;99.90;;;;;;4926842;28;91842;-80
2022/09/29 04:54:13;;;;;;;3.10;1.40;;;9.00;99.90;;;;;;4925381;28;93201;-80
2022/09/29 04:56:39;;;;;;;4.20;1.30;;;9.10;99.90;;;;;;4915095;28;92394;-83
2022/09/29 04:59:05;;;;;;;3.45;1.48;;;9.10;99.90;;;;;;4921671;28;92527;-83
2022/09/29 05:01:31;;;;;;;2.92;1.30;;;9.10;99.90;;;;;;4915938;28;91964;-84
2022/09/29 05:03:57;;;;;;;5.20;1.33;;;9.10;99.90;;;;;;4919307;28;92295;-83
2022/09/29 05:06:23;;;;;;;3.58;1.70;;;9.10;99.90;;;;;;4924232;28;92033;-84
2022/09/29 05:08:48;;;;;;;3.80;1.75;;;9.10;99.90;;;;;;4925071;28;91355;-83
2022/09/29 05:11:14;;;;;;;3.03;1.23;;;9.10;99.90;;;;;;4924325;28;91014;-83
2022/09/29 05:13:40;;;;;;;3.15;1.30;;;9.10;99.90;;;;;;4921538;28;92309;-83
2022/09/29 05:16:06;;;;;;;6.18;1.90;;;9.10;99.90;;;;;;4922908;28;91362;-83
2022/09/29 05:18:32;;;;;;;3.95;1.33;;;9.10;99.90;;;;;;4924463;28;92857;-83
2022/09/29 05:21:08;;;;;;;4.22;1.58;;;8.90;99.90;;;;;;4922533;28;92259;-83
2022/09/29 05:23:33;;;;;;;5.43;1.50;;;8.80;99.90;;;;;;4923459;28;92335;-82
2022/09/29 05:26:07;;;;;;;3.40;1.48;;;8.80;99.90;;;;;;4917556;28;91358;-83
2022/09/29 05:28:34;;;;;;;2.13;0.95;;;8.70;99.90;;;;;;4920692;28;91262;-82
2022/09/29 05:31:01;;;;;;;3.28;1.58;;;8.70;99.90;;;;;;4921496;28;91348;-83
2022/09/29 05:33:27;;;;;;;4.35;1.70;;;8.70;99.90;;;;;;4909714;28;91600;-82
2022/09/29 05:35:53;;;;;;;4.38;1.60;;;8.60;99.90;;;;;;4920253;28;91728;-83
2022/09/29 05:38:19;;;;;;;4.82;1.88;;;8.60;99.90;;;;;;4918099;28;92009;-82
2022/09/29 05:40:45;;;;;;;4.00;1.75;;;8.60;99.90;;;;;;4917852;28;91482;-83
2022/09/29 05:43:11;;;;;;;3.35;1.70;;;8.50;99.90;;;;;;4920127;28;93189;-83
2022/09/29 05:45:36;;;;;;;3.63;1.75;;;8.50;99.90;;;;;;4915954;28;92261;-83
2022/09/29 05:48:02;;;;;;;6.57;2.28;;;8.60;99.90;;;;;;4920610;28;91844;-83
2022/09/29 05:50:28;;;;;;;3.88;1.45;;;8.80;99.90;;;;;;4913084;28;91293;-84
2022/09/29 05:52:53;;;;;;;5.22;1.67;;;9.00;99.90;;;;;;4920725;28;93131;-84
2022/09/29 05:55:19;;;;;;;3.80;1.77;;;9.10;99.90;;;;;;4916851;28;91369;-82
2022/09/29 05:57:48;;;;;;;3.45;1.25;;;9.10;99.90;;;;;;4920593;28;92255;-82
2022/09/29 06:00:14;;;;;;;2.88;1.05;;;9.10;99.90;;;;;;4921082;28;91087;-83
2022/09/29 06:02:40;;;;;;;2.40;1.02;;;9.10;99.90;;;;;;4919674;28;92716;-83
2022/09/29 06:05:06;;;;;;;4.55;1.42;;;9.10;99.90;;;;;;4914667;28;91921;-83
2022/09/29 06:07:31;;;;;;;2.92;1.00;;;9.10;99.90;;;;;;4920980;28;92313;-83
2022/09/29 06:09:57;;;;;;;4.28;1.90;;;9.20;99.90;;;;;;4919730;28;91761;-83
2022/09/29 06:12:23;;;;;;;4.35;1.70;;;9.10;99.90;;;;;;4905460;28;91681;-85
2022/09/29 06:14:48;;;;;;;2.53;1.25;;;9.20;99.90;;;;;;4914736;28;91737;-83
2022/09/29 06:17:14;;;;;;;5.47;1.10;;;9.30;99.90;;;;;;4916047;28;91299;-82
2022/09/29 06:19:40;;;;;;;4.47;1.65;;;9.40;99.90;;;;;;4920959;28;91579;-82
2022/09/29 06:22:06;;;;;;;4.82;1.60;;;9.50;99.90;;;;;;4920476;28;92755;-83
2022/09/29 06:24:31;;;;;;;4.25;1.90;;;9.40;99.90;;;;;;4919679;28;91195;-83
2022/09/29 06:26:57;;;;;;;2.70;1.45;;;9.50;99.90;;;;;;4919739;28;91724;-83
2022/09/29 06:29:23;;;;;;;11.40;1.70;;;9.50;99.90;;;;;;4920420;28;92019;-83
2022/09/29 06:31:48;;;;;;;6.63;2.15;;;9.60;99.90;;;;;;4919427;28;92667;-82
2022/09/29 06:34:14;;;;;;;3.92;1.52;;;9.60;99.90;;;;;;4907583;28;93350;-83
2022/09/29 06:39:26;;;;;;;4.40;1.30;;;9.80;99.90;;;;;;4920218;28;91279;-83
2022/09/29 06:41:54;;;;;;;3.90;0.98;;;9.90;99.90;;;;;;4918560;28;92306;-83
2022/09/29 06:44:23;;;;;;;3.50;1.40;;;10.00;99.90;;;;;;4919231;28;91300;-83
2022/09/29 06:46:50;;;;;;;2.67;1.67;;;10.10;99.90;;;;;;4902256;28;91818;-82
2022/09/29 06:49:16;;;;;;;7.88;1.90;;;10.10;99.90;;;;;;4920827;28;90476;-82
2022/09/29 06:51:43;;;;;;;4.07;1.52;;;10.20;99.90;;;;;;4919750;28;92530;-83
2022/09/29 06:54:15;;;;;;;4.30;1.77;;;10.10;99.90;;;;;;4911269;28;95072;-83
2022/09/29 06:56:41;;;;;;;5.57;1.30;;;10.10;99.90;;;;;;4918760;28;92457;-84
2022/09/29 06:59:07;;;;;;;4.80;1.02;;;9.90;99.90;;;;;;4914289;28;92035;-83
2022/09/29 07:01:33;;;;;;;4.22;1.17;;;9.70;99.90;;;;;;4919545;28;92256;-83
2022/09/29 07:04:01;;;;;;;4.47;1.30;;;9.80;99.90;;;;;;4906964;28;92408;-82
2022/09/29 07:06:28;;;;;;;4.60;2.10;;;9.70;99.90;;;;;;4917226;28;92046;-83
2022/09/29 07:08:54;;;;;;;4.95;1.58;;;9.50;99.90;;;;;;4916764;28;91493;-82
2022/09/29 07:11:20;;;;;;;3.83;1.92;;;9.60;99.90;;;;;;4915082;28;92090;-83
2022/09/29 07:13:46;;;;;;;4.38;1.30;;;9.90;99.90;;;;;;4916316;28;91133;-83
2022/09/29 07:16:13;;;;;;;4.10;1.60;;;10.10;99.90;;;;;;4911399;28;91928;-84
2022/09/29 07:18:40;;;;;;;4.50;1.83;;;10.30;99.90;;;;;;4917247;28;92376;-83
2022/09/29 07:21:11;;;;;;;4.85;1.70;;;10.40;99.90;;;;;;4911162;28;93406;-83
2022/09/29 07:23:37;;;;;;;2.95;1.33;;;10.50;99.90;;;;;;4906696;28;92811;-83
2022/09/29 07:26:05;;;;;;;4.57;0.90;;;10.50;99.90;;;;;;4910390;28;91274;-84
2022/09/29 07:28:31;;;;;;;5.00;1.25;;;10.60;99.90;;;;;;4908950;28;92377;-83
2022/09/29 07:31:02;;;;;;;4.07;1.73;;;10.50;99.90;;;;;;4914168;28;92299;-84
2022/09/29 07:33:29;;;;;;;3.78;1.52;;;10.40;99.90;;;;;;4910879;28;91972;-81
2022/09/29 07:35:55;;;;;;;5.75;1.63;;;10.30;99.90;;;;;;4914798;28;91553;-82
2022/09/29 07:38:20;;;;;;;6.60;0.90;;;10.40;99.90;;;;;;4902162;28;90524;-80
2022/09/29 07:40:46;;;;;;;3.10;1.20;;;10.40;99.90;;;;;;4910545;28;92210;-79
2022/09/29 07:43:12;;;;;;;2.00;0.88;;;10.50;99.90;;;;;;4910925;28;91604;-82
2022/09/29 07:45:38;;;;;;;3.78;0.50;;;10.50;99.90;;;;;;4911940;28;92742;-84
2022/09/29 07:48:03;;;;;;;2.17;0.52;;;10.50;99.90;;;;;;4911454;28;92326;-80
2022/09/29 07:50:30;;;;;;;1.60;0.40;;;10.60;99.90;;;;;;4911144;28;92130;-79
2022/09/29 07:52:56;;;;;;;3.00;0.70;;;10.60;99.90;;;;;;4912445;28;92172;-83
2022/09/29 07:55:22;;;;;;;8.55;0.70;;;10.70;99.90;;;;;;4909046;28;91284;-79
2022/09/29 07:57:48;;;;;;;2.30;0.90;;;10.80;99.90;;;;;;4912114;28;91933;-83
2022/09/29 08:00:16;;;;;;;1.73;0.57;;;10.80;99.90;;;;;;4910758;28;91532;-81
2022/09/29 08:02:42;;;;;;;2.15;0.90;;;10.90;99.90;;;;;;4910617;28;91402;-82
2022/09/29 08:05:09;;;;;;;3.08;1.02;;;10.70;99.90;;;;;;4906848;28;91807;-82
2022/09/29 08:07:34;;;;;;;4.22;1.15;;;10.50;99.90;;;;;;4913622;28;91764;-81
2022/09/29 08:10:00;;;;;;;8.82;4.80;;;10.50;99.90;;;;;;4913126;28;94246;-79
2022/09/29 08:12:26;;;;;;;3.95;0.82;;;10.40;99.90;;;;;;4912290;28;92679;-80
2022/09/29 08:14:52;;;;;;;1.73;0.50;;;10.50;99.90;;;;;;4912265;28;92782;-80
2022/09/29 08:17:18;;;;;;;1.77;0.40;;;10.50;99.90;;;;;;4912280;28;91339;-81
2022/09/29 08:19:43;;;;;;;2.05;0.57;;;10.40;99.90;;;;;;4910169;28;91707;-83
2022/09/29 08:22:09;;;;;;;1.92;0.65;;;10.60;99.90;;;;;;4913956;28;91542;-82
2022/09/29 08:24:35;;;;;;;2.30;0.63;;;10.80;99.90;;;;;;4913388;28;92617;-82
2022/09/29 08:27:05;;;;;;;1.73;0.50;;;11.10;99.90;;;;;;4908191;28;91272;-83
2022/09/29 08:29:32;;;;;;;1.80;0.68;;;11.20;99.90;;;;;;4911848;28;91596;-83
2022/09/29 08:31:58;;;;;;;2.80;0.68;;;11.00;99.90;;;;;;4910252;28;91822;-82
2022/09/29 08:34:23;;;;;;;2.38;0.60;;;11.10;99.90;;;;;;4909159;28;93216;-83
2022/09/29 08:36:50;;;;;;;2.15;0.57;;;11.30;99.90;;;;;;4908726;28;91688;-83
2022/09/29 08:39:18;;;;;;;1.90;0.70;;;11.30;99.90;;;;;;4907072;28;92356;-84
2022/09/29 08:41:59;;;;;;;2.10;0.65;;;11.40;99.90;;;;;;4907271;28;92163;-83
2022/09/29 08:44:31;;;;;;;2.80;1.13;;;11.60;99.90;;;;;;4910358;28;91414;-83
2022/09/29 08:47:19;;;;;;;2.80;1.17;;;11.70;99.90;;;;;;4908144;28;93434;-82
2022/09/29 08:49:51;;;;;;;1.38;0.60;;;11.60;99.90;;;;;;4894231;28;94016;-83
2022/09/29 08:52:27;;;;;;;2.88;0.90;;;11.60;99.90;;;;;;4914133;28;92128;-83
2022/09/29 08:55:34;;;;;;;2.03;0.68;;;11.70;99.90;;;;;;4917057;28;91661;-83
2022/09/29 08:58:01;;;;;;;2.42;0.70;;;11.60;99.90;;;;;;4900143;28;91562;-83
2022/09/29 09:00:55;;;;;;;2.05;0.57;;;11.60;99.90;;;;;;4915311;28;93227;-82
2022/09/29 09:03:31;;;;;;;3.72;0.60;;;11.80;99.90;;;;;;4912793;28;92888;-82
2022/09/29 09:06:05;;;;;;;2.00;0.70;;;11.80;99.90;;;;;;4920272;28;91958;-83
2022/09/29 09:08:37;;;;;;;2.20;0.60;;;11.90;99.90;;;;;;4917774;28;91417;-84
2022/09/29 09:11:11;;;;;;;1.90;0.70;;;12.30;99.90;;;;;;4919747;28;92762;-83
2022/09/29 09:13:52;;;;;;;1.90;0.60;;;12.40;99.90;;;;;;4915237;28;91800;-83
2022/09/29 09:16:42;;;;;;;1.58;0.30;;;12.50;99.90;;;;;;4917024;28;91859;-83
2022/09/29 09:19:30;;;;;;;2.75;0.20;;;12.50;99.90;;;;;;4916622;28;90696;-83
2022/09/29 09:22:21;;;;;;;1.52;0.55;;;12.50;99.90;;;;;;4919682;28;92390;-84
2022/09/29 09:25:03;;;;;;;1.27;0.30;;;12.60;99.90;;;;;;4912069;28;92028;-83
2022/09/29 09:27:43;;;;;;;1.63;0.50;;;12.60;99.90;;;;;;4917784;28;92516;-83
2022/09/29 09:30:18;;;;;;;1.90;0.50;;;12.70;99.90;;;;;;4912751;28;91297;-83
2022/09/29 09:32:57;;;;;;;1.55;0.40;;;12.80;99.90;;;;;;4918529;28;92069;-84
2022/09/29 09:35:46;;;;;;;0.80;0.20;;;12.60;99.90;;;;;;4917431;28;92555;-84
2022/09/29 09:38:17;;;;;;;;;;;12.70;98.80;;;;;;4916821;28;91894;-84
2022/09/29 09:40:51;;;;;;;1.60;0.40;;;12.70;99.30;;;;;;4919091;28;91897;-83
2022/09/29 09:43:20;;;;;;;2.88;0.50;;;12.80;98.80;;;;;;4918239;28;93352;-83
2022/09/29 09:45:56;;;;;;;2.20;0.63;;;12.90;98.60;;;;;;4919653;28;92930;-82
2022/09/29 09:48:31;;;;;;;1.30;0.60;;;12.90;99.90;;;;;;4914254;28;91407;-84
2022/09/29 09:51:00;;;;;;;1.10;0.40;;;12.90;98.60;;;;;;4911969;28;91706;-83
2022/09/29 09:53:47;;;;;;;1.10;0.30;;;12.80;99.00;;;;;;4917522;28;92743;-83
2022/09/29 09:56:29;;;;;;;2.03;0.50;;;12.70;98.90;;;;;;4915760;28;92877;-83
2022/09/29 09:58:55;;;;;;;2.33;0.63;;;12.70;99.90;;;;;;4918852;28;91258;-82
2022/09/29 10:01:21;;;;;;;1.33;0.50;;;12.60;99.00;;;;;;4914472;28;91318;-84
2022/09/29 10:03:46;;;;;;;2.45;0.50;;;12.60;99.90;;;;;;4916463;28;91682;-83
2022/09/29 10:06:12;;;;;;;1.35;0.30;;;12.50;99.90;;;;;;4916987;28;92184;-83
2022/09/29 10:08:41;;;;;;;0.80;0.20;;;12.60;99.90;;;;;;4916695;28;93368;-83
2022/09/29 10:11:25;;;;;;;1.05;0.32;;;12.50;99.30;;;;;;4909514;28;90548;-85
2022/09/29 10:14:24;;;;;;;2.63;0.35;;;12.40;99.90;;;;;;4916161;28;91979;-83
2022/09/29 10:17:01;;;;;;;1.98;0.50;;;12.40;99.90;;;;;;4907491;28;92074;-83
2022/09/29 10:19:51;;;;;;;3.22;0.65;;;12.40;99.90;;;;;;4908660;28;92193;-84
2022/09/29 10:22:18;;;;;;;2.45;0.40;;;12.50;99.90;;;;;;4896811;28;92093;-83
2022/09/29 10:24:44;;;;;;;1.58;0.52;;;12.50;99.90;;;;;;4916369;28;92188;-83
2022/09/29 10:27:16;;;;;;;1.67;0.50;;;12.50;99.90;;;;;;4910898;28;92309;-84
2022/09/29 10:29:48;;;;;;;5.25;0.43;;;12.50;99.90;;;;;;4911135;28;91732;-83
2022/09/29 10:32:26;;;;;;;1.40;0.38;;;12.40;99.90;;;;;;4909197;28;91832;-84
2022/09/29 10:35:01;;;;;;;1.83;0.32;;;12.50;99.90;;;;;;4910217;28;92738;-83
2022/09/29 10:37:34;;;;;;;1.35;0.32;;;12.60;99.90;;;;;;4910639;28;91378;-83
2022/09/29 10:40:11;;;;;;;1.80;0.50;;;12.80;99.90;;;;;;4913167;28;91964;-83
2022/09/29 10:42:42;;;;;;;2.00;0.40;;;12.90;99.90;;;;;;4910472;28;91461;-84
2022/09/29 10:45:14;;;;;;;1.02;0.22;;;13.10;99.90;;;;;;4906659;28;95177;-83
2022/09/29 10:47:43;;;;;;;1.10;0.30;;;13.30;99.90;;;;;;4909297;28;92941;-84
2022/09/29 10:50:16;;;;;;;1.63;0.47;;;13.30;99.70;;;;;;4905543;28;91495;-84
2022/09/29 10:52:51;;;;;;;1.45;0.40;;;13.20;99.90;;;;;;4910901;28;92454;-84
2022/09/29 10:55:22;;;;;;;1.15;0.40;;;13.10;99.90;;;;;;4909903;28;92424;-83
2022/09/29 10:57:49;;;;;;;0.85;0.22;;;13.00;99.90;;;;;;4912466;28;92182;-84
2022/09/29 11:00:27;;;;;;;1.65;0.43;;;13.00;99.90;;;;;;4910465;28;91761;-85
2022/09/29 11:03:03;;;;;;;1.10;0.20;;;12.80;99.90;;;;;;4915054;28;91787;-83
2022/09/29 11:05:28;;;;;;;1.10;0.32;;;12.70;99.90;;;;;;4907881;28;92323;-83
2022/09/29 11:07:54;;;;;;;1.90;0.50;;;12.60;99.90;;;;;;4910716;28;92368;-83
2022/09/29 11:10:31;;;;;;;1.70;0.60;;;12.40;99.90;;;;;;4911855;28;93056;-83
2022/09/29 11:12:59;;;;;;;1.20;0.30;;;12.30;99.90;;;;;;4908959;28;91687;-83
2022/09/29 11:15:28;;;;;;;3.42;0.82;;;12.40;99.90;;;;;;4914420;28;92540;-83
2022/09/29 11:17:56;;;;;;;1.95;0.40;;;12.30;99.90;;;;;;4913020;28;91724;-83
2022/09/29 11:20:27;;;;;;;1.40;0.45;;;12.20;99.90;;;;;;4909656;28;92308;-84
2022/09/29 11:22:59;;;;;;;1.38;0.40;;;12.00;99.90;;;;;;4915942;28;91808;-84
2022/09/29 11:26:01;;;;;;;1.83;0.40;;;12.10;99.90;;;;;;4914086;28;91669;-83
2022/09/29 11:28:59;;;;;;;1.95;0.50;;;12.10;99.90;;;;;;4915188;28;91342;-83
2022/09/29 11:31:45;;;;;;;1.73;0.77;;;12.10;99.90;;;;;;4875889;28;91550;-83
2022/09/29 11:34:22;;;;;;;1.67;0.52;;;12.20;99.90;;;;;;4909787;28;93565;-83
2022/09/29 11:36:54;;;;;;;2.78;1.33;;;12.20;99.90;;;;;;4908447;28;92798;-83
2022/09/29 11:39:37;;;;;;;2.00;0.60;;;12.30;99.90;;;;;;4911088;28;92836;-84
2022/09/29 11:42:24;;;;;;;1.92;0.60;;;12.60;99.90;;;;;;4915144;28;92491;-83
2022/09/29 11:44:59;;;;;;;2.38;0.52;;;12.90;99.90;;;;;;4914947;28;91780;-84
2022/09/29 11:47:56;;;;;;;2.05;0.60;;;13.20;99.90;;;;;;4912191;28;92319;-83
2022/09/29 11:50:31;;;;;;;2.17;0.40;;;13.30;99.90;;;;;;4910536;28;93206;-83
2022/09/29 11:52:59;;;;;;;1.30;0.45;;;13.30;99.70;;;;;;4910775;28;91801;-83
2022/09/29 11:55:41;;;;;;;0.93;0.32;;;13.30;99.90;;;;;;4907820;28;90844;-83
2022/09/29 11:58:21;;;;;;;1.90;0.35;;;13.10;99.90;;;;;;4911483;28;92275;-84
2022/09/29 12:01:01;;;;;;;0.82;0.30;;;13.00;99.90;;;;;;4915720;28;91948;-80
2022/09/29 12:03:30;;;;;;;1.20;0.43;;;13.20;99.90;;;;;;4911216;28;92634;-79
2022/09/29 12:06:07;;;;;;;1.52;0.45;;;13.30;99.90;;;;;;4911022;28;91864;-80
2022/09/29 12:08:46;;;;;;;1.05;0.40;;;13.50;99.90;;;;;;4918128;28;91619;-81
2022/09/29 12:11:39;;;;;;;2.05;0.50;;;13.60;99.80;;;;;;4906777;28;91865;-79
2022/09/29 12:14:23;;;;;;;1.50;0.38;;;13.60;99.60;;;;;;4908635;28;91663;-82
2022/09/29 12:17:02;;;;;;;2.00;0.50;;;13.50;99.60;;;;;;4907737;28;91702;-79
2022/09/29 12:19:32;;;;;;;1.85;0.45;;;13.40;98.60;;;;;;4901288;28;92159;-80
2022/09/29 12:22:01;;;;;;;1.08;0.40;;;13.30;98.60;;;;;;4907707;28;91302;-81
2022/09/29 12:24:35;;;;;;;2.08;0.43;;;13.40;98.80;;;;;;4904518;28;91261;-80
2022/09/29 12:27:24;;;;;;;1.00;0.30;;;13.60;97.10;;;;;;4910670;28;91965;-79
2022/09/29 12:30:05;;;;;;;2.50;0.30;;;13.60;97.50;;;;;;4907216;28;92876;-79
2022/09/29 12:32:43;;;;;;;1.42;0.22;;;13.70;96.80;;;;;;4915632;28;92492;-81
2022/09/29 12:35:28;;;;;;;0.90;0.20;;;13.90;95.90;;;;;;4916095;28;91330;-76
2022/09/29 12:38:18;;;;;;;3.50;0.20;;;13.90;95.80;;;;;;4915883;28;91640;-78
2022/09/29 12:41:10;;;;;;;2.65;0.25;;;14.10;94.60;;;;;;4903629;28;91815;-79
2022/09/29 12:43:52;;;;;;;1.13;0.20;;;14.40;94.90;;;;;;4903570;28;91579;-78
2022/09/29 12:46:37;;;;;;;0.90;0.17;;;14.60;94.90;;;;;;4909869;28;91699;-79
2022/09/29 12:49:12;;;;;;;1.90;0.20;;;14.50;94.10;;;;;;4913453;28;90760;-81
2022/09/29 12:51:49;;;;;;;0.90;0.20;;;14.30;94.40;;;;;;4914537;28;92820;-80
2022/09/29 12:54:46;;;;;;;1.17;0.30;;;14.30;93.60;;;;;;4908646;28;92977;-79
2022/09/29 12:57:16;;;;;;;0.98;0.20;;;14.10;94.50;;;;;;4912461;28;92708;-78
2022/09/29 12:59:56;;;;;;;;;;;14.10;94.10;;;;;;4916439;28;91256;-79
2022/09/29 13:02:21;;;;;;;2.58;0.20;;;14.20;93.20;;;;;;4911931;28;92278;-79
2022/09/29 13:04:49;;;;;;;0.50;0.20;;;14.40;92.90;;;;;;4917239;28;91997;-82
2022/09/29 13:07:38;;;;;;;1.33;0.20;;;14.50;92.00;;;;;;4914260;28;92259;-77
2022/09/29 13:10:19;;;;;;;;;;;14.50;92.20;;;;;;4907667;28;91284;-80
2022/09/29 13:13:05;;;;;;;1.08;0.10;;;14.50;91.80;;;;;;4910644;28;91827;-78
2022/09/29 13:16:05;;;;;;;0.30;0.10;;;14.60;86.20;;;;;;4916454;28;92425;-79
2022/09/29 13:18:40;;;;;;;1.02;0.25;;;14.30;89.60;;;;;;4913972;28;91771;-83
2022/09/29 13:21:22;;;;;;;0.52;0.10;;;14.20;90.80;;;;;;4917206;28;92564;-82
2022/09/29 13:24:08;;;;;;;0.80;0.20;;;14.20;85.10;;;;;;4909168;28;93221;-78
2022/09/29 13:26:51;;;;;;;0.82;0.30;;;13.90;90.00;;;;;;4912553;28;92160;-80
2022/09/29 13:29:22;;;;;;;1.02;0.20;;;14.10;91.40;;;;;;4909700;28;91289;-80
2022/09/29 13:31:52;;;;;;;0.90;0.30;;;14.20;92.20;;;;;;4909809;28;91335;-79
2022/09/29 13:34:36;;;;;;;1.60;0.40;;;14.30;92.80;;;;;;4917248;28;92271;-80
2022/09/29 13:37:17;;;;;;;1.35;0.40;;;14.30;93.00;;;;;;4903634;28;92147;-81
2022/09/29 13:39:50;;;;;;;1.40;0.40;;;14.20;91.70;;;;;;4907928;28;92657;-80
2022/09/29 13:42:35;;;;;;;0.88;0.30;;;14.30;94.00;;;;;;4906342;28;91797;-82
2022/09/29 13:45:35;;;;;;;0.90;0.30;;;14.40;92.90;;;;;;4905402;28;92733;-81
2022/09/29 13:48:29;;;;;;;0.93;0.20;;;14.30;90.30;;;;;;4909539;28;91816;-82
2022/09/29 13:50:55;;;;;;;1.00;0.30;;;14.20;93.70;;;;;;4909611;28;92671;-83
2022/09/29 13:53:21;;;;;;;0.88;0.30;;;14.30;93.40;;;;;;4916758;28;92037;-81
2022/09/29 13:55:55;;;;;;;1.25;0.40;;;14.40;93.70;;;;;;4912640;28;93913;-82
2022/09/29 13:58:29;;;;;;;0.95;0.22;;;14.50;92.70;;;;;;4913858;28;92021;-83
2022/09/29 14:00:58;;;;;;;0.82;0.20;;;14.70;91.20;;;;;;4915976;28;91621;-82
2022/09/29 14:03:34;;;;;;;0.55;0.10;;;14.70;90.60;;;;;;4916930;28;92473;-82
2022/09/29 14:06:03;;;;;;;;;;;14.40;86.80;;;;;;4915054;28;92057;-82
2022/09/29 14:08:34;;;;;;;0.68;0.30;;;14.30;90.40;;;;;;4914922;28;92014;-81
2022/09/29 14:11:10;;;;;;;0.50;0.20;;;14.40;92.60;;;;;;4913889;28;91444;-82
2022/09/29 14:13:43;;;;;;;1.55;0.20;;;14.50;91.00;;;;;;4915035;28;91722;-84
2022/09/29 14:16:15;;;;;;;1.17;0.30;;;14.50;90.20;;;;;;4912120;28;92555;-83
2022/09/29 14:19:21;;;;;;;1.00;0.38;;;13.70;91.00;;;;;;4905393;28;93078;-82
2022/09/29 14:21:50;;;;;;;1.48;0.30;;;13.30;92.90;;;;;;4907430;28;91641;-82
2022/09/29 14:24:35;;;;;;;0.98;0.30;;;13.20;93.90;;;;;;4916883;28;91522;-86
2022/09/29 14:27:13;;;;;;;2.72;0.20;;;13.50;94.80;;;;;;4920285;28;91793;-85
2022/09/29 14:30:02;;;;;;;0.90;0.20;;;13.50;92.80;;;;;;4923107;28;91393;-84
2022/09/29 14:32:33;;;;;;;3.90;0.30;;;13.60;93.90;;;;;;4922032;28;91211;-84
2022/09/29 14:34:59;;;;;;;5.32;0.68;;;13.70;94.70;;;;;;4918004;28;90996;-82
2022/09/29 14:37:26;;;;;;;2.17;0.70;;;13.80;94.60;;;;;;4905923;28;92939;-81
2022/09/29 14:42:38;;;;;;;2.08;0.40;;;13.90;94.30;;;;;;4901624;28;92274;-82
2022/09/29 14:53:45;;;;;;;1.00;0.25;;;14.10;94.10;;;;;;4905897;28;91616;-82
2022/09/29 14:56:23;;;;;;;1.25;0.35;;;13.80;92.30;;;;;;4903356;28;92098;-83
2022/09/29 14:59:05;;;;;;;1.13;0.30;;;13.70;92.00;;;;;;4903268;28;92806;-81
2022/09/29 15:01:35;;;;;;;2.13;0.50;;;13.60;93.10;;;;;;4903734;28;91223;-82
2022/09/29 15:04:05;;;;;;;1.65;0.50;;;13.60;94.00;;;;;;4905900;28;91487;-83
2022/09/29 15:06:31;;;;;;;2.17;0.57;;;13.70;93.50;;;;;;4899700;28;93735;-82
2022/09/29 15:08:59;;;;;;;2.97;0.50;;;13.70;94.00;;;;;;4903321;28;93106;-80
2022/09/29 15:11:27;;;;;;;3.20;0.60;;;13.60;94.60;;;;;;4902972;28;92149;-81
2022/09/29 15:13:55;;;;;;;2.92;0.60;;;13.60;94.50;;;;;;4908809;28;91296;-81
2022/09/29 15:16:44;;;;;;;1.70;0.50;;;13.60;94.50;;;;;;4900035;28;92043;-83
2022/09/29 15:19:49;;;;;;;2.08;0.65;;;13.50;94.40;;;;;;4906586;28;92270;-80
2022/09/29 15:22:39;;;;;;;1.52;0.52;;;13.30;95.10;;;;;;4904520;28;92523;-82
2022/09/29 15:25:20;;;;;;;1.70;0.52;;;13.20;95.40;;;;;;4903905;28;91402;-82
2022/09/29 15:27:52;;;;;;;2.47;0.60;;;13.10;96.30;;;;;;4899601;28;91895;-83
2022/09/29 15:30:20;;;;;;;2.17;0.60;;;13.10;97.40;;;;;;4903767;28;92817;-84
2022/09/29 15:32:48;;;;;;;1.80;0.80;;;13.10;98.00;;;;;;4903404;28;92399;-80
2022/09/29 15:35:20;;;;;;;3.05;0.88;;;13.30;98.00;;;;;;4907051;28;92355;-82
2022/09/29 15:37:48;;;;;;;2.25;1.00;;;13.20;97.10;;;;;;4902901;28;91629;-81
2022/09/29 15:40:20;;;;;;;2.88;1.00;;;13.10;97.10;;;;;;4903670;28;91858;-81
2022/09/29 15:42:46;;;;;;;2.80;0.93;;;13.00;97.70;;;;;;4904724;28;92776;-81
2022/09/29 15:45:30;;;;;;;1.77;1.00;;;12.50;98.60;;;;;;4902334;28;91599;-80
2022/09/29 15:48:07;;;;;;;2.65;0.75;;;12.50;99.80;;;;;;4904188;28;91820;-83
2022/09/29 15:50:41;;;;;;;2.70;0.82;;;12.50;99.90;;;;;;4901928;28;92273;-80
2022/09/29 15:53:10;;;;;;;3.55;0.90;;;12.70;99.90;;;;;;4903103;28;91805;-80
2022/09/29 15:55:35;;;;;;;1.90;0.80;;;12.80;99.90;;;;;;4904628;28;91354;-82
2022/09/29 15:58:41;;;;;;;2.05;0.65;;;12.80;99.70;;;;;;4907703;28;91695;-80
2022/09/29 16:01:11;;;;;;;2.50;0.85;;;12.80;99.70;;;;;;4903579;28;92847;-82
2022/09/29 16:03:49;;;;;;;3.75;1.10;;;12.60;99.90;;;;;;4897724;28;94592;-83
2022/09/29 16:06:17;;;;;;;5.57;1.23;;;12.40;99.90;;;;;;4903593;28;91358;-82
2022/09/29 16:08:48;;;;;;;4.38;1.35;;;12.20;99.90;;;;;;4911000;28;91370;-82
2022/09/29 16:11:24;;;;;;;5.13;2.38;;;12.10;99.90;;;;;;4914371;28;92343;-82
2022/09/29 16:13:57;;;;;;;3.13;1.30;;;12.00;99.90;;;;;;4910548;28;91980;-82
2022/09/29 16:16:35;;;;;;;2.67;1.20;;;11.90;99.90;;;;;;4914457;28;91514;-83
2022/09/29 16:19:08;;;;;;;5.40;1.00;;;11.70;99.90;;;;;;4914809;28;90528;-83